sensor_id;sensor_type;location;lat;lon;timestamp;pressure;altitude;pressure_sealevel;temperature;humidity
35331;BME280;21441;52.190;20.910;2023-03-23T00:02:25;99458.13;;;8.44;100.00
35331;BME280;21441;52.190;20.910;2023-03-23T00:04:53;99459.06;;;8.51;100.00
35331;BME280;21441;52.190;20.910;2023-03-23T00:07:22;99455.03;;;8.55;100.00
35331;BME280;21441;52.190;20.910;2023-03-23T00:09:53;99452.44;;;8.47;100.00
35331;BME280;21441;52.190;20.910;2023-03-23T00:12:22;99444.13;;;8.50;100.00
35331;BME280;21441;52.190;20.910;2023-03-23T00:14:54;99451.47;;;8.40;100.00
35331;BME280;21441;52.190;20.910;2023-03-23T00:17:22;99454.63;;;8.43;100.00
35331;BME280;21441;52.190;20.910;2023-03-23T00:19:49;99451.72;;;8.53;100.00
35331;BME280;21441;52.190;20.910;2023-03-23T00:22:17;99440.94;;;8.55;100.00
35331;BME280;21441;52.190;20.910;2023-03-23T00:24:48;99450.53;;;8.56;100.00
35331;BME280;21441;52.190;20.910;2023-03-23T00:27:16;99446.69;;;8.58;100.00
35331;BME280;21441;52.190;20.910;2023-03-23T00:29:43;99447.88;;;8.56;100.00
35331;BME280;21441;52.190;20.910;2023-03-23T00:32:13;99443.09;;;8.51;100.00
35331;BME280;21441;52.190;20.910;2023-03-23T00:34:42;99443.28;;;8.50;100.00
35331;BME280;21441;52.190;20.910;2023-03-23T00:37:12;99441.63;;;8.49;100.00
35331;BME280;21441;52.190;20.910;2023-03-23T00:39:42;99438.69;;;8.43;100.00
35331;BME280;21441;52.190;20.910;2023-03-23T00:42:13;99424.75;;;8.41;100.00
35331;BME280;21441;52.190;20.910;2023-03-23T00:44:41;99433.88;;;8.39;100.00
35331;BME280;21441;52.190;20.910;2023-03-23T00:47:09;99434.03;;;8.45;100.00
35331;BME280;21441;52.190;20.910;2023-03-23T00:49:37;99432.53;;;8.43;100.00
35331;BME280;21441;52.190;20.910;2023-03-23T00:52:05;99423.94;;;8.33;100.00
35331;BME280;21441;52.190;20.910;2023-03-23T00:54:33;99429.69;;;8.44;100.00
35331;BME280;21441;52.190;20.910;2023-03-23T00:57:02;99434.31;;;8.51;100.00
35331;BME280;21441;52.190;20.910;2023-03-23T00:59:30;99423.13;;;8.55;100.00
35331;BME280;21441;52.190;20.910;2023-03-23T01:01:58;99418.38;;;8.51;100.00
35331;BME280;21441;52.190;20.910;2023-03-23T01:04:25;99414.78;;;8.58;100.00
35331;BME280;21441;52.190;20.910;2023-03-23T01:06:53;99414.03;;;8.50;100.00
35331;BME280;21441;52.190;20.910;2023-03-23T01:09:22;99414.78;;;8.58;100.00
35331;BME280;21441;52.190;20.910;2023-03-23T01:11:51;99405.00;;;8.59;100.00
35331;BME280;21441;52.190;20.910;2023-03-23T01:14:19;99412.28;;;8.42;100.00
35331;BME280;21441;52.190;20.910;2023-03-23T01:16:47;99413.31;;;8.56;100.00
35331;BME280;21441;52.190;20.910;2023-03-23T01:19:15;99416.47;;;8.59;100.00
35331;BME280;21441;52.190;20.910;2023-03-23T01:21:42;99424.94;;;8.63;100.00
35331;BME280;21441;52.190;20.910;2023-03-23T01:24:09;99418.03;;;8.68;100.00
35331;BME280;21441;52.190;20.910;2023-03-23T01:26:37;99416.03;;;8.71;100.00
35331;BME280;21441;52.190;20.910;2023-03-23T01:29:04;99411.38;;;8.73;100.00
35331;BME280;21441;52.190;20.910;2023-03-23T01:31:31;99414.97;;;8.80;100.00
35331;BME280;21441;52.190;20.910;2023-03-23T01:34:00;99419.63;;;8.78;100.00
35331;BME280;21441;52.190;20.910;2023-03-23T01:36:30;99419.28;;;8.81;100.00
35331;BME280;21441;52.190;20.910;2023-03-23T01:39:00;99420.75;;;8.83;100.00
35331;BME280;21441;52.190;20.910;2023-03-23T01:41:29;99413.88;;;8.89;100.00
35331;BME280;21441;52.190;20.910;2023-03-23T01:43:59;99416.91;;;8.86;100.00
35331;BME280;21441;52.190;20.910;2023-03-23T01:46:29;99411.88;;;8.91;100.00
35331;BME280;21441;52.190;20.910;2023-03-23T01:49:01;99410.59;;;8.87;100.00
35331;BME280;21441;52.190;20.910;2023-03-23T01:51:34;99406.44;;;8.84;100.00
35331;BME280;21441;52.190;20.910;2023-03-23T01:54:04;99408.28;;;8.84;100.00
35331;BME280;21441;52.190;20.910;2023-03-23T01:56:37;99403.06;;;8.91;100.00
35331;BME280;21441;52.190;20.910;2023-03-23T01:59:07;99400.22;;;8.92;100.00
35331;BME280;21441;52.190;20.910;2023-03-23T02:01:36;99401.88;;;8.78;100.00
35331;BME280;21441;52.190;20.910;2023-03-23T02:04:06;99393.88;;;8.78;100.00
35331;BME280;21441;52.190;20.910;2023-03-23T02:06:34;99393.34;;;8.83;100.00
35331;BME280;21441;52.190;20.910;2023-03-23T02:09:02;99388.38;;;8.80;100.00
35331;BME280;21441;52.190;20.910;2023-03-23T02:11:29;99379.56;;;8.79;100.00
35331;BME280;21441;52.190;20.910;2023-03-23T02:13:56;99387.81;;;8.84;100.00
35331;BME280;21441;52.190;20.910;2023-03-23T02:16:31;99383.69;;;8.82;100.00
35331;BME280;21441;52.190;20.910;2023-03-23T02:19:31;99384.88;;;8.79;100.00
35331;BME280;21441;52.190;20.910;2023-03-23T02:22:23;99380.38;;;8.80;100.00
35331;BME280;21441;52.190;20.910;2023-03-23T02:25:11;99373.69;;;8.84;100.00
35331;BME280;21441;52.190;20.910;2023-03-23T02:28:21;99378.53;;;8.80;100.00
35331;BME280;21441;52.190;20.910;2023-03-23T02:31:05;99385.47;;;8.90;100.00
35331;BME280;21441;52.190;20.910;2023-03-23T02:33:42;99385.47;;;8.90;100.00
35331;BME280;21441;52.190;20.910;2023-03-23T02:36:20;99373.88;;;8.82;100.00
35331;BME280;21441;52.190;20.910;2023-03-23T02:38:56;99371.13;;;8.76;100.00
35331;BME280;21441;52.190;20.910;2023-03-23T02:41:28;99372.59;;;8.78;100.00
35331;BME280;21441;52.190;20.910;2023-03-23T02:43:58;99372.41;;;8.80;100.00
35331;BME280;21441;52.190;20.910;2023-03-23T02:46:26;99365.59;;;8.62;100.00
35331;BME280;21441;52.190;20.910;2023-03-23T02:48:55;99374.06;;;8.81;100.00
35331;BME280;21441;52.190;20.910;2023-03-23T02:51:24;99373.16;;;8.88;100.00
35331;BME280;21441;52.190;20.910;2023-03-23T02:53:55;99373.25;;;8.95;100.00
35331;BME280;21441;52.190;20.910;2023-03-23T02:56:24;99379.88;;;8.99;100.00
35331;BME280;21441;52.190;20.910;2023-03-23T02:58:53;99382.06;;;8.96;100.00
35331;BME280;21441;52.190;20.910;2023-03-23T03:01:49;99384.09;;;9.08;100.00
35331;BME280;21441;52.190;20.910;2023-03-23T03:04:22;99376.75;;;9.11;100.00
35331;BME280;21441;52.190;20.910;2023-03-23T03:07:00;99376.50;;;9.20;100.00
35331;BME280;21441;52.190;20.910;2023-03-23T03:09:35;99375.47;;;9.21;100.00
35331;BME280;21441;52.190;20.910;2023-03-23T03:12:09;99376.38;;;9.28;100.00
35331;BME280;21441;52.190;20.910;2023-03-23T03:14:44;99374.84;;;9.19;100.00
35331;BME280;21441;52.190;20.910;2023-03-23T03:17:21;99367.66;;;9.20;100.00
35331;BME280;21441;52.190;20.910;2023-03-23T03:19:52;99371.09;;;9.14;100.00
35331;BME280;21441;52.190;20.910;2023-03-23T03:22:23;99367.66;;;9.20;100.00
35331;BME280;21441;52.190;20.910;2023-03-23T03:24:55;99376.38;;;9.28;100.00
35331;BME280;21441;52.190;20.910;2023-03-23T03:27:25;99378.53;;;9.33;100.00
35331;BME280;21441;52.190;20.910;2023-03-23T03:29:56;99373.72;;;9.43;100.00
35331;BME280;21441;52.190;20.910;2023-03-23T03:32:28;99375.75;;;9.41;100.00
35331;BME280;21441;52.190;20.910;2023-03-23T03:35:00;99389.53;;;9.45;100.00
35331;BME280;21441;52.190;20.910;2023-03-23T03:37:33;99386.69;;;9.46;100.00
35331;BME280;21441;52.190;20.910;2023-03-23T03:40:04;99382.44;;;9.37;100.00
35331;BME280;21441;52.190;20.910;2023-03-23T03:42:37;99391.63;;;9.35;100.00
35331;BME280;21441;52.190;20.910;2023-03-23T03:45:05;99384.19;;;9.30;100.00
35331;BME280;21441;52.190;20.910;2023-03-23T03:47:33;99389.19;;;9.33;100.00
35331;BME280;21441;52.190;20.910;2023-03-23T03:50:02;99383.38;;;9.29;100.00
35331;BME280;21441;52.190;20.910;2023-03-23T03:52:30;99386.88;;;9.30;100.00
35331;BME280;21441;52.190;20.910;2023-03-23T03:54:57;99386.78;;;9.23;100.00
35331;BME280;21441;52.190;20.910;2023-03-23T03:57:25;99376.38;;;9.28;100.00
35331;BME280;21441;52.190;20.910;2023-03-23T03:59:52;99359.88;;;9.18;100.00
35331;BME280;21441;52.190;20.910;2023-03-23T04:02:19;99360.53;;;9.20;100.00
35331;BME280;21441;52.190;20.910;2023-03-23T04:04:47;99358.94;;;9.11;100.00
35331;BME280;21441;52.190;20.910;2023-03-23T04:07:16;99356.00;;;8.91;100.00
35331;BME280;21441;52.190;20.910;2023-03-23T04:09:43;99353.75;;;9.03;100.00
35331;BME280;21441;52.190;20.910;2023-03-23T04:12:13;99361.41;;;8.98;100.00
35331;BME280;21441;52.190;20.910;2023-03-23T04:14:41;99359.78;;;8.97;100.00
35331;BME280;21441;52.190;20.910;2023-03-23T04:17:08;99360.25;;;9.00;100.00
35331;BME280;21441;52.190;20.910;2023-03-23T04:19:36;99362.44;;;8.97;100.00
35331;BME280;21441;52.190;20.910;2023-03-23T04:22:04;99361.53;;;8.90;100.00
35331;BME280;21441;52.190;20.910;2023-03-23T04:24:33;99366.63;;;8.91;100.00
35331;BME280;21441;52.190;20.910;2023-03-23T04:27:01;99356.66;;;8.93;100.00
35331;BME280;21441;52.190;20.910;2023-03-23T04:29:28;99360.91;;;9.02;100.00
35331;BME280;21441;52.190;20.910;2023-03-23T04:31:56;99363.00;;;8.92;100.00
35331;BME280;21441;52.190;20.910;2023-03-23T04:34:23;99354.72;;;9.02;100.00
35331;BME280;21441;52.190;20.910;2023-03-23T04:36:51;99358.00;;;8.89;100.00
35331;BME280;21441;52.190;20.910;2023-03-23T04:39:18;99355.94;;;8.99;100.00
35331;BME280;21441;52.190;20.910;2023-03-23T04:41:47;99350.25;;;9.02;100.00
35331;BME280;21441;52.190;20.910;2023-03-23T04:44:14;99348.13;;;8.98;100.00
35331;BME280;21441;52.190;20.910;2023-03-23T04:46:44;99362.81;;;8.94;100.00
35331;BME280;21441;52.190;20.910;2023-03-23T04:49:15;99359.69;;;8.90;100.00
35331;BME280;21441;52.190;20.910;2023-03-23T04:51:47;99356.75;;;8.85;100.00
35331;BME280;21441;52.190;20.910;2023-03-23T04:54:16;99340.69;;;8.78;100.00
35331;BME280;21441;52.190;20.910;2023-03-23T04:56:44;99341.16;;;8.97;100.00
35331;BME280;21441;52.190;20.910;2023-03-23T04:59:12;99343.81;;;8.97;100.00
35331;BME280;21441;52.190;20.910;2023-03-23T05:01:40;99355.84;;;8.93;100.00
35331;BME280;21441;52.190;20.910;2023-03-23T05:04:11;99358.94;;;8.81;100.00
35331;BME280;21441;52.190;20.910;2023-03-23T05:06:42;99355.09;;;8.84;100.00
35331;BME280;21441;52.190;20.910;2023-03-23T05:09:11;99348.56;;;8.86;100.00
35331;BME280;21441;52.190;20.910;2023-03-23T05:11:39;99348.97;;;8.98;100.00
35331;BME280;21441;52.190;20.910;2023-03-23T05:14:06;99348.84;;;9.06;100.00
35331;BME280;21441;52.190;20.910;2023-03-23T05:16:35;99346.19;;;9.06;100.00
35331;BME280;21441;52.190;20.910;2023-03-23T05:19:03;99339.72;;;9.09;100.00
35331;BME280;21441;52.190;20.910;2023-03-23T05:21:30;99343.00;;;8.96;100.00
35331;BME280;21441;52.190;20.910;2023-03-23T05:23:57;99343.28;;;9.01;100.00
35331;BME280;21441;52.190;20.910;2023-03-23T05:26:27;99344.28;;;9.00;100.00
35331;BME280;21441;52.190;20.910;2023-03-23T05:28:55;99352.44;;;8.99;100.00
35331;BME280;21441;52.190;20.910;2023-03-23T05:31:23;99345.47;;;8.98;100.00
35331;BME280;21441;52.190;20.910;2023-03-23T05:33:52;99354.47;;;8.97;100.00
35331;BME280;21441;52.190;20.910;2023-03-23T05:36:19;99345.91;;;8.86;100.00
35331;BME280;21441;52.190;20.910;2023-03-23T05:38:48;99347.78;;;9.01;100.00
35331;BME280;21441;52.190;20.910;2023-03-23T05:41:17;99346.94;;;9.15;100.00
35331;BME280;21441;52.190;20.910;2023-03-23T05:43:44;99354.28;;;9.13;100.00
35331;BME280;21441;52.190;20.910;2023-03-23T05:46:12;99351.16;;;9.09;100.00
35331;BME280;21441;52.190;20.910;2023-03-23T05:48:39;99350.81;;;9.27;100.00
35331;BME280;21441;52.190;20.910;2023-03-23T05:51:07;99347.97;;;9.29;100.00
35331;BME280;21441;52.190;20.910;2023-03-23T05:53:35;99357.50;;;9.38;100.00
35331;BME280;21441;52.190;20.910;2023-03-23T05:56:04;99355.00;;;9.52;100.00
35331;BME280;21441;52.190;20.910;2023-03-23T05:58:32;99363.25;;;9.57;100.00
35331;BME280;21441;52.190;20.910;2023-03-23T06:00:59;99355.16;;;9.65;100.00
35331;BME280;21441;52.190;20.910;2023-03-23T06:03:26;99362.50;;;9.78;100.00
35331;BME280;21441;52.190;20.910;2023-03-23T06:05:54;99358.50;;;9.88;100.00
35331;BME280;21441;52.190;20.910;2023-03-23T06:08:22;99360.44;;;9.95;100.00
35331;BME280;21441;52.190;20.910;2023-03-23T06:10:49;99356.03;;;9.87;100.00
35331;BME280;21441;52.190;20.910;2023-03-23T06:13:16;99351.72;;;9.86;100.00
35331;BME280;21441;52.190;20.910;2023-03-23T06:15:44;99356.34;;;9.99;100.00
35331;BME280;21441;52.190;20.910;2023-03-23T06:18:11;99356.69;;;10.10;100.00
35331;BME280;21441;52.190;20.910;2023-03-23T06:20:39;99353.88;;;10.19;100.00
35331;BME280;21441;52.190;20.910;2023-03-23T06:23:06;99358.47;;;10.25;100.00
35331;BME280;21441;52.190;20.910;2023-03-23T06:25:36;99361.09;;;10.40;100.00
35331;BME280;21441;52.190;20.910;2023-03-23T06:28:03;99361.78;;;10.48;100.00
35331;BME280;21441;52.190;20.910;2023-03-23T06:30:30;99360.84;;;10.56;100.00
35331;BME280;21441;52.190;20.910;2023-03-23T06:32:58;99359.94;;;10.70;100.00
35331;BME280;21441;52.190;20.910;2023-03-23T06:35:25;99376.44;;;10.81;100.00
35331;BME280;21441;52.190;20.910;2023-03-23T06:37:52;99370.13;;;10.88;100.00
35331;BME280;21441;52.190;20.910;2023-03-23T06:40:20;99375.72;;;10.93;100.00
35331;BME280;21441;52.190;20.910;2023-03-23T06:42:49;99374.94;;;11.06;100.00
35331;BME280;21441;52.190;20.910;2023-03-23T06:45:16;99353.78;;;10.98;100.00
35331;BME280;21441;52.190;20.910;2023-03-23T06:47:45;99368.72;;;11.27;100.00
35331;BME280;21441;52.190;20.910;2023-03-23T06:50:14;99364.50;;;11.40;100.00
35331;BME280;21441;52.190;20.910;2023-03-23T06:52:45;99368.47;;;11.57;100.00
35331;BME280;21441;52.190;20.910;2023-03-23T06:55:13;99361.91;;;11.60;100.00
35331;BME280;21441;52.190;20.910;2023-03-23T06:57:40;99376.78;;;11.75;100.00
35331;BME280;21441;52.190;20.910;2023-03-23T07:00:12;99378.47;;;11.90;100.00
35331;BME280;21441;52.190;20.910;2023-03-23T07:02:39;99378.50;;;11.96;100.00
35331;BME280;21441;52.190;20.910;2023-03-23T07:05:08;99381.00;;;12.05;100.00
35331;BME280;21441;52.190;20.910;2023-03-23T07:07:36;99375.47;;;12.06;100.00
35331;BME280;21441;52.190;20.910;2023-03-23T07:10:04;99375.28;;;12.14;100.00
35331;BME280;21441;52.190;20.910;2023-03-23T07:12:31;99379.00;;;12.27;100.00
35331;BME280;21441;52.190;20.910;2023-03-23T07:14:59;99385.59;;;12.31;100.00
35331;BME280;21441;52.190;20.910;2023-03-23T07:17:28;99386.63;;;12.36;100.00
35331;BME280;21441;52.190;20.910;2023-03-23T07:19:55;99387.66;;;12.55;97.78
35331;BME280;21441;52.190;20.910;2023-03-23T07:22:22;99389.34;;;12.56;96.97
35331;BME280;21441;52.190;20.910;2023-03-23T07:24:50;99386.03;;;12.61;95.61
35331;BME280;21441;52.190;20.910;2023-03-23T07:27:17;99377.81;;;12.76;93.64
35331;BME280;21441;52.190;20.910;2023-03-23T07:29:45;99376.78;;;12.77;90.98
35331;BME280;21441;52.190;20.910;2023-03-23T07:32:12;99393.63;;;12.91;89.76
35331;BME280;21441;52.190;20.910;2023-03-23T07:34:41;99385.59;;;12.97;88.09
35331;BME280;21441;52.190;20.910;2023-03-23T07:37:08;99388.69;;;13.08;86.81
35331;BME280;21441;52.190;20.910;2023-03-23T07:39:36;99393.44;;;12.99;85.99
35331;BME280;21441;52.190;20.910;2023-03-23T07:42:03;99386.63;;;13.16;84.82
35331;BME280;21441;52.190;20.910;2023-03-23T07:44:33;99390.94;;;13.37;83.79
35331;BME280;21441;52.190;20.910;2023-03-23T07:47:01;99388.59;;;13.54;81.48
35331;BME280;21441;52.190;20.910;2023-03-23T07:49:28;99387.53;;;13.69;79.32
35331;BME280;21441;52.190;20.910;2023-03-23T07:51:57;99389.88;;;13.45;78.41
35331;BME280;21441;52.190;20.910;2023-03-23T07:54:27;99380.81;;;13.46;78.62
35331;BME280;21441;52.190;20.910;2023-03-23T07:56:54;99383.88;;;13.56;78.24
35331;BME280;21441;52.190;20.910;2023-03-23T07:59:22;99383.25;;;13.54;77.90
35331;BME280;21441;52.190;20.910;2023-03-23T08:01:49;99377.81;;;13.74;77.08
35331;BME280;21441;52.190;20.910;2023-03-23T08:04:16;99380.72;;;13.73;75.21
35331;BME280;21441;52.190;20.910;2023-03-23T08:06:44;99382.63;;;13.66;76.04
35331;BME280;21441;52.190;20.910;2023-03-23T08:09:12;99372.06;;;13.71;75.96
35331;BME280;21441;52.190;20.910;2023-03-23T08:11:40;99376.94;;;13.87;74.33
35331;BME280;21441;52.190;20.910;2023-03-23T08:14:07;99380.50;;;13.74;73.90
35331;BME280;21441;52.190;20.910;2023-03-23T08:16:34;99365.53;;;13.98;73.16
35331;BME280;21441;52.190;20.910;2023-03-23T08:19:01;99367.16;;;14.06;73.29
35331;BME280;21441;52.190;20.910;2023-03-23T08:21:30;99365.88;;;14.15;71.31
35331;BME280;21441;52.190;20.910;2023-03-23T08:23:57;99365.69;;;14.10;71.40
35331;BME280;21441;52.190;20.910;2023-03-23T08:26:26;99369.28;;;13.97;72.34
35331;BME280;21441;52.190;20.910;2023-03-23T08:28:54;99363.00;;;14.10;71.55
35331;BME280;21441;52.190;20.910;2023-03-23T08:31:21;99342.94;;;14.19;70.24
35331;BME280;21441;52.190;20.910;2023-03-23T08:33:48;99338.75;;;14.30;69.31
35331;BME280;21441;52.190;20.910;2023-03-23T08:36:15;99322.75;;;14.42;67.79
35331;BME280;21441;52.190;20.910;2023-03-23T08:38:43;99326.97;;;14.63;66.95
35331;BME280;21441;52.190;20.910;2023-03-23T08:41:11;99337.53;;;14.83;66.91
35331;BME280;21441;52.190;20.910;2023-03-23T08:43:40;99340.53;;;14.93;64.34
35331;BME280;21441;52.190;20.910;2023-03-23T08:46:07;99332.34;;;14.81;63.21
35331;BME280;21441;52.190;20.910;2023-03-23T08:48:37;99344.91;;;14.88;63.40
35331;BME280;21441;52.190;20.910;2023-03-23T08:51:05;99342.22;;;14.88;63.12
35331;BME280;21441;52.190;20.910;2023-03-23T08:53:33;99342.75;;;14.78;62.83
35331;BME280;21441;52.190;20.910;2023-03-23T08:56:04;99337.69;;;14.63;63.80
35331;BME280;21441;52.190;20.910;2023-03-23T08:58:31;99340.13;;;14.90;61.46
35331;BME280;21441;52.190;20.910;2023-03-23T09:01:00;99325.59;;;14.97;61.49
35331;BME280;21441;52.190;20.910;2023-03-23T09:03:28;99348.75;;;14.98;61.08
35331;BME280;21441;52.190;20.910;2023-03-23T09:05:58;99349.25;;;14.89;60.47
35331;BME280;21441;52.190;20.910;2023-03-23T09:08:27;99345.47;;;15.15;61.12
35331;BME280;21441;52.190;20.910;2023-03-23T09:10:55;99346.78;;;14.87;59.57
35331;BME280;21441;52.190;20.910;2023-03-23T09:13:25;99330.06;;;14.85;59.89
35331;BME280;21441;52.190;20.910;2023-03-23T09:15:52;99338.38;;;15.02;59.77
35331;BME280;21441;52.190;20.910;2023-03-23T09:18:21;99345.59;;;15.01;58.86
35331;BME280;21441;52.190;20.910;2023-03-23T09:20:49;99342.56;;;14.98;58.53
35331;BME280;21441;52.190;20.910;2023-03-23T09:23:17;99356.19;;;14.96;58.45
35331;BME280;21441;52.190;20.910;2023-03-23T09:25:45;99332.03;;;15.15;58.68
35331;BME280;21441;52.190;20.910;2023-03-23T09:28:12;99340.31;;;15.32;57.95
35331;BME280;21441;52.190;20.910;2023-03-23T09:30:40;99337.56;;;15.38;58.10
35331;BME280;21441;52.190;20.910;2023-03-23T09:33:08;99340.09;;;15.52;57.61
35331;BME280;21441;52.190;20.910;2023-03-23T09:35:37;99331.72;;;15.60;57.21
35331;BME280;21441;52.190;20.910;2023-03-23T09:38:08;99323.22;;;15.81;56.23
35331;BME280;21441;52.190;20.910;2023-03-23T09:40:40;99326.13;;;15.80;54.96
35331;BME280;21441;52.190;20.910;2023-03-23T09:43:35;99308.66;;;15.71;54.17
35331;BME280;21441;52.190;20.910;2023-03-23T09:46:18;99304.81;;;15.97;53.92
35331;BME280;21441;52.190;20.910;2023-03-23T09:48:51;99307.69;;;16.25;53.37
35331;BME280;21441;52.190;20.910;2023-03-23T09:51:31;99295.91;;;16.50;51.86
35331;BME280;21441;52.190;20.910;2023-03-23T09:54:08;99296.84;;;16.79;52.28
35331;BME280;21441;52.190;20.910;2023-03-23T09:56:37;99302.22;;;17.15;51.14
35331;BME280;21441;52.190;20.910;2023-03-23T09:59:12;99296.41;;;16.82;50.69
35331;BME280;21441;52.190;20.910;2023-03-23T10:01:44;99294.53;;;16.83;50.79
35331;BME280;21441;52.190;20.910;2023-03-23T10:07:54;99291.06;;;17.23;48.99
35331;BME280;21441;52.190;20.910;2023-03-23T10:10:24;99271.34;;;17.46;48.47
35331;BME280;21441;52.190;20.910;2023-03-23T10:12:56;99275.50;;;17.65;48.17
35331;BME280;21441;52.190;20.910;2023-03-23T10:15:27;99273.25;;;17.62;48.41
35331;BME280;21441;52.190;20.910;2023-03-23T10:17:59;99274.59;;;17.88;47.03
35331;BME280;21441;52.190;20.910;2023-03-23T10:20:33;99267.50;;;17.70;46.66
35331;BME280;21441;52.190;20.910;2023-03-23T10:23:35;99281.31;;;17.74;46.67
35331;BME280;21441;52.190;20.910;2023-03-23T10:26:12;99255.97;;;18.04;46.80
35331;BME280;21441;52.190;20.910;2023-03-23T10:28:43;99260.47;;;18.49;45.80
35331;BME280;21441;52.190;20.910;2023-03-23T10:31:13;99256.44;;;19.07;44.05
35331;BME280;21441;52.190;20.910;2023-03-23T10:33:44;99257.84;;;19.32;43.78
35331;BME280;21441;52.190;20.910;2023-03-23T10:36:16;99250.09;;;19.41;43.58
35331;BME280;21441;52.190;20.910;2023-03-23T10:38:49;99248.16;;;19.14;43.84
35331;BME280;21441;52.190;20.910;2023-03-23T10:41:20;99267.78;;;19.26;44.07
35331;BME280;21441;52.190;20.910;2023-03-23T10:43:47;99252.13;;;19.28;43.73
35331;BME280;21441;52.190;20.910;2023-03-23T10:46:25;99254.31;;;19.31;43.26
35331;BME280;21441;52.190;20.910;2023-03-23T10:48:54;99275.31;;;19.46;43.12
35331;BME280;21441;52.190;20.910;2023-03-23T10:51:28;99260.28;;;19.11;43.94
35331;BME280;21441;52.190;20.910;2023-03-23T10:54:00;99247.59;;;19.34;43.96
35331;BME280;21441;52.190;20.910;2023-03-23T10:56:37;99247.66;;;19.39;43.64
35331;BME280;21441;52.190;20.910;2023-03-23T10:59:13;99255.31;;;19.69;43.69
35331;BME280;21441;52.190;20.910;2023-03-23T11:01:44;99250.50;;;20.04;42.38
35331;BME280;21441;52.190;20.910;2023-03-23T11:04:14;99237.53;;;20.06;42.90
35331;BME280;21441;52.190;20.910;2023-03-23T11:06:45;99243.25;;;20.09;42.87
35331;BME280;21441;52.190;20.910;2023-03-23T11:09:16;99226.44;;;20.07;39.60
35331;BME280;21441;52.190;20.910;2023-03-23T11:11:49;99223.91;;;20.65;38.42
35331;BME280;21441;52.190;20.910;2023-03-23T11:14:18;99217.25;;;20.88;36.91
35331;BME280;21441;52.190;20.910;2023-03-23T11:16:49;99222.97;;;20.12;36.48
35331;BME280;21441;52.190;20.910;2023-03-23T11:19:24;99209.13;;;20.46;36.86
35331;BME280;21441;52.190;20.910;2023-03-23T11:21:54;99212.34;;;20.80;35.57
35331;BME280;21441;52.190;20.910;2023-03-23T11:24:23;99208.38;;;20.55;36.08
35331;BME280;21441;52.190;20.910;2023-03-23T11:26:53;99200.63;;;20.74;36.34
35331;BME280;21441;52.190;20.910;2023-03-23T11:29:24;99207.66;;;21.38;35.65
35331;BME280;21441;52.190;20.910;2023-03-23T11:32:00;99197.72;;;21.75;35.66
35331;BME280;21441;52.190;20.910;2023-03-23T11:34:33;99191.22;;;20.82;36.83
35331;BME280;21441;52.190;20.910;2023-03-23T11:37:05;99199.50;;;20.60;37.63
35331;BME280;21441;52.190;20.910;2023-03-23T11:39:48;99187.84;;;20.59;38.60
35331;BME280;21441;52.190;20.910;2023-03-23T11:42:19;99183.88;;;20.77;38.07
35331;BME280;21441;52.190;20.910;2023-03-23T11:44:47;99168.75;;;20.92;38.29
35331;BME280;21441;52.190;20.910;2023-03-23T11:47:22;99160.44;;;21.19;37.71
35331;BME280;21441;52.190;20.910;2023-03-23T11:49:55;99171.25;;;21.14;37.67
35331;BME280;21441;52.190;20.910;2023-03-23T11:52:29;99158.13;;;21.58;37.58
35331;BME280;21441;52.190;20.910;2023-03-23T11:55:04;99158.66;;;21.91;36.29
35331;BME280;21441;52.190;20.910;2023-03-23T11:57:35;99158.19;;;22.90;35.15
35331;BME280;21441;52.190;20.910;2023-03-23T12:00:12;99142.31;;;23.97;33.40
35331;BME280;21441;52.190;20.910;2023-03-23T12:05:55;99131.88;;;26.42;30.21
35331;BME280;21441;52.190;20.910;2023-03-23T12:08:36;99130.63;;;26.06;30.08
35331;BME280;21441;52.190;20.910;2023-03-23T12:11:15;99115.25;;;26.24;29.68
35331;BME280;21441;52.190;20.910;2023-03-23T12:13:56;99128.19;;;26.32;29.61
35331;BME280;21441;52.190;20.910;2023-03-23T12:16:34;99118.91;;;22.52;34.55
35331;BME280;21441;52.190;20.910;2023-03-23T12:19:11;99120.00;;;22.56;34.84
35331;BME280;21441;52.190;20.910;2023-03-23T12:21:47;99122.28;;;21.72;35.91
35331;BME280;21441;52.190;20.910;2023-03-23T12:24:29;99114.06;;;23.87;33.35
35331;BME280;21441;52.190;20.910;2023-03-23T12:27:07;99110.00;;;27.78;28.86
35331;BME280;21441;52.190;20.910;2023-03-23T12:29:52;99112.81;;;25.57;30.91
35331;BME280;21441;52.190;20.910;2023-03-23T12:32:34;99114.84;;;23.54;33.67
35331;BME280;21441;52.190;20.910;2023-03-23T12:35:14;99114.56;;;23.16;34.32
35331;BME280;21441;52.190;20.910;2023-03-23T12:37:53;99126.63;;;21.98;36.33
35331;BME280;21441;52.190;20.910;2023-03-23T12:43:21;99129.06;;;20.65;38.74
35331;BME280;21441;52.190;20.910;2023-03-23T12:46:17;99128.78;;;20.61;38.94
35331;BME280;21441;52.190;20.910;2023-03-23T12:48:50;99117.22;;;20.81;38.81
35331;BME280;21441;52.190;20.910;2023-03-23T12:51:22;99111.47;;;20.68;39.07
35331;BME280;21441;52.190;20.910;2023-03-23T12:53:57;99127.31;;;20.44;39.91
35331;BME280;21441;52.190;20.910;2023-03-23T12:56:32;99120.66;;;19.76;40.53
35331;BME280;21441;52.190;20.910;2023-03-23T12:59:17;99119.00;;;19.75;40.99
35331;BME280;21441;52.190;20.910;2023-03-23T13:01:51;99130.66;;;19.49;41.32
35331;BME280;21441;52.190;20.910;2023-03-23T13:04:22;99133.59;;;18.93;42.57
35331;BME280;21441;52.190;20.910;2023-03-23T13:06:50;99130.31;;;19.13;42.82
35331;BME280;21441;52.190;20.910;2023-03-23T13:09:20;99128.53;;;19.24;42.51
35331;BME280;21441;52.190;20.910;2023-03-23T13:11:53;99122.16;;;19.35;42.71
35331;BME280;21441;52.190;20.910;2023-03-23T13:14:36;99126.38;;;19.26;42.84
35331;BME280;21441;52.190;20.910;2023-03-23T13:17:14;99113.06;;;19.19;43.04
35331;BME280;21441;52.190;20.910;2023-03-23T13:20:02;99118.44;;;18.92;43.20